WEATHER DATA

YESTERDAY
Time Temp. Dewp. Hum. Wind dir Wind speed Wind gust Bar. 1h Prec. 24h Prec.
00:03 -2.5 -5.7 76 239 0.6 1.9 1010.8 0.0000 0.0000
00:10 -2.5 -5.7 76 225 0.6 1.7 1010.7 0.0000 0.0000
00:31 -2.6 -5.8 76 231 0.6 1.7 1010.3 0.0000 0.0000
00:41 -2.7 -5.9 76 233 0.6 1.1 1010.3 0.0000 0.0000
00:50 -2.8 -6 76 247 0.6 1.1 1010.1 0.0000 0.0000
01:11 -2.9 -6.1 76 231 0.6 0.8 1010 0.0000 0.0000
01:21 -3 -6.2 76 244 0.6 1.7 1009.9 0.0000 0.0000
01:31 -3 -6.2 76 232 0.6 1.7 1009.8 0.0000 0.0000
01:51 -3.2 -6.4 76 213 0.6 1.7 1009.6 0.0000 0.0000
02:01 -3.3 -6.5 76 212 0.6 1.7 1009.4 0.0000 0.0000
02:12 -3.3 -6.5 76 225 0.3 1.1 1009.3 0.0000 0.0000
02:31 -3.2 -6.4 76 180 0.6 1.1 1008.8 0.0000 0.0000
02:42 -3.2 -6.4 76 201 0.6 1.9 1008.5 0.0000 0.0000
02:52 -3.1 -6.2 77 188 0.6 1.7 1008.4 0.0000 0.0000
03:02 -3 -6.1 77 237 0.6 1.7 1008.2 0.0000 0.0000
03:11 -2.9 -6 77 228 0.6 2.2 1008.1 0.0000 0.0000
03:22 -2.8 -5.9 77 233 0.6 2.2 1007.9 0.0000 0.0000
03:32 -2.8 -5.9 77 270 0.3 1.1 1007.8 0.0000 0.0000
03:42 -2.7 -5.8 77 215 0.6 1.9 1007.6 0.0000 0.0000
03:52 -2.6 -5.7 77 236 0.6 1.9 1007.5 0.0000 0.0000
04:02 -2.5 -5.6 77 270 0.6 1.7 1007.4 0.0000 0.0000
04:12 -2.5 -5.6 77 225 0.6 1.7 1007.1 0.0000 0.0000
04:22 -2.4 -5.5 77 235 0.6 1.9 1007 0.0000 0.0000
04:33 -2.3 -5.4 77 270 0.6 1.7 1007 0.0000 0.0000
04:42 -2.3 -5.4 77 206 0.6 1.1 1006.9 0.0000 0.0000
04:52 -2.2 -5.3 77 241 0.6 1.7 1007 0.0000 0.0000
05:02 -2.1 -5.2 77 231 0.6 1.7 1007 0.0000 0.0000
05:13 -2 -5.1 77 270 0.3 0.8 1006.8 0.0000 0.0000
05:23 -2 -5.1 77 216 0.6 1.9 1006.7 0.0000 0.0000
05:32 -1.9 -5 77 242 0.6 1.9 1006.7 0.0000 0.0000
05:43 -1.9 -5 77 225 0.6 1.7 1006.6 0.0000 0.0000
05:53 -1.9 -5 77 239 0.6 1.9 1006.4 0.0000 0.0000
06:03 -1.9 -5 77 253 0.6 1.9 1006.4 0.0000 0.0000
06:13 -1.9 -5 77 270 0.3 1.1 1006.3 0.0000 0.0000
06:23 -1.9 -5 77 244 0.6 2.2 1006.1 0.0000 0.0000
06:33 -1.9 -5 77 180 0.6 1.9 1006 0.0000 0.0000
06:43 -1.9 -5 77 225 0.6 1.7 1005.9 0.0000 0.0000
06:54 -1.9 -5 77 231 0.6 1.7 1005.7 0.0000 0.0000
07:04 -1.9 -5 77 90 0.6 2.8 1005.6 0.0000 0.0000
07:13 -1.9 -5 77 105 0.8 2.8 1005.4 0.0000 0.0000
07:23 -1.9 -5 77 119 0.6 1.9 1005.5 0.0000 0.0000
07:34 -1.9 -5 77 180 0.6 3.1 1005.4 0.0000 0.0000
07:44 -1.9 -5 77 215 0.6 1.9 1005.4 0.0000 0.0000
07:54 -1.9 -5 77 90 0.6 2.8 1005.3 0.0000 0.0000
08:04 -1.9 -5 77 0.6 2.2 1005.3 0.0000 0.0000
08:14 -1.9 -5 77 116 0.6 1.9 1005.2 0.0000 0.0000
08:24 -1.9 -5 77 90 0.6 1.7 1005.2 0.0000 0.0000
08:34 -1.9 -5 77 135 0.6 1.9 1005 0.0000 0.0000
08:45 -1.8 -4.9 77 90 0.6 1.7 1005 0.0000 0.0000
08:54 -1.8 -4.9 77 0.6 1.9 1004.7 0.0000 0.0000
09:04 -1.7 -4.8 77 225 0.6 1.1 1004.6 0.0000 0.0000
09:15 -1.6 -4.7 77 315 0.6 1.7 1004.5 0.0000 0.0000
09:25 -1.6 -4.7 77 270 0.6 1.9 1004.5 0.0000 0.0000
09:34 -1.5 -4.6 77 161 0.6 2.8 1004.4 0.0000 0.0000
09:44 -1.5 -4.6 77 180 0.6 2.2 1004.2 0.0000 0.0000
09:55 -1.3 -4.4 77 315 0.3 1.9 1004.2 0.0000 0.0000
10:01 -1.3 -4.4 77 270 0.3 0.8 1004.1 0.0000 0.0000
10:10 -1.2 -4.3 77 90 0.8 3.1 1004 0.0000 0.0000
10:20 -1.2 -4.3 77 105 0.6 1.9 1003.7 0.0000 0.0000
10:31 -1.1 -4.2 77 251 0.6 2.2 1003.5 0.0000 0.0000
10:41 -1 -4.1 77 225 0.6 2.2 1003.4 0.0000 0.0000
10:51 -0.9 -4 77 225 0.6 1.7 1003.2 0.0000 0.0000
11:01 -0.8 -3.9 77 270 0.6 1.7 1003.1 0.0000 0.0000
11:11 -0.8 -3.9 77 243 0.6 1.9 1003 0.0000 0.0000
11:21 -0.7 -3.8 77 218 0.6 2.2 1002.6 0.0000 0.0000
11:31 -0.7 -3.8 77 306 0.6 1.7 1002.3 0.0000 0.0000
11:41 -0.6 -3.7 77 198 0.6 1.9 1002 0.0000 0.0000
11:51 -0.5 -3.6 77 243 0.6 2.2 1002 0.0000 0.0000
12:01 -0.4 -3.5 77 200 0.6 2.2 1002 0.0000 0.0000
12:11 -0.2 -3.3 77 251 0.6 1.7 1001.9 0.0000 0.0000
12:22 -0.1 -3.2 77 231 0.6 2.2 1001.8 0.0000 0.0000
12:31 0 -3.1 77 225 0.6 1.9 1001.7 0.0000 0.0000
12:41 0.1 -3 77 230 0.6 1.9 1001.6 0.0000 0.0000
12:52 0.2 -3 77 233 0.6 1.9 1001.4 0.0000 0.0000
13:02 0.3 -2.9 77 270 0.6 1.7 1001.3 0.0000 0.0000
13:12 0.4 -2.8 77 217 0.6 1.7 1001.2 0.0000 0.0000
13:21 0.4 -2.8 77 244 0.6 1.1 1001.1 0.0000 0.0000
13:32 0.5 -2.7 77 183 0.6 2.2 1000.8 0.0000 0.0000
13:42 0.5 -2.7 77 270 0.6 1.7 1000.8 0.0000 0.0000
13:52 0.5 -2.7 77 251 0.6 1.1 1000.8 0.0000 0.0000
14:03 0.6 -2.6 77 234 0.6 2.2 1000.7 0.0000 0.0000
14:12 0.6 -2.6 77 243 0.6 1.1 1000.5 0.0000 0.0000
14:22 0.7 -2.5 77 270 0.6 0.8 1000.3 0.0000 0.0000
14:32 0.7 -2.5 77 270 0.3 1.1 1000.1 0.0000 0.0000
14:43 0.7 -2.5 77 270 0.6 1.7 1000 0.0000 0.0000
14:52 0.7 -2.5 77 236 0.6 1.7 1000.1 0.0000 0.0000
15:02 0.7 -2.5 77 270 0.3 1.1 999.9 0.0000 0.0000
15:13 0.7 -2.5 77 231 0.3 1.7 999.7 0.0000 0.0000
15:23 0.7 -2.5 77 228 0.6 1.9 999.8 0.0000 0.0000
15:33 0.7 -2.5 77 219 0.3 1.7 999.6 0.0000 0.0000
15:42 0.7 -2.5 77 270 0.3 1.7 999.4 0.0000 0.0000
15:53 0.7 -2.5 77 234 0.6 2.2 999.3 0.0000 0.0000
16:03 0.6 -2.6 77 153 0.6 2.2 999 0.0000 0.0000
16:13 0.6 -2.6 77 239 0.6 1.9 999 0.0000 0.0000
16:24 0.6 -2.6 77 270 0.6 1.7 998.9 0.0000 0.0000
16:33 0.8 -2.4 77 0 0.6 2.2 998.8 0.0000 0.0000
16:43 0.5 -2.7 77 315 0.6 2.2 998.5 0.0000 0.0000
16:53 0.3 -3 76 225 0.6 1.7 998.4 0.0000 0.0000
17:04 0.1 -3.2 76 90 0.6 1.9 998.3 0.0000 0.0000
17:14 0 -3.3 76 135 0.6 2.2 998.3 0.0000 0.0000
17:23 0 -3.3 76 225 0.6 1.9 998.3 0.0000 0.0000
17:34 -0.1 -3.4 76 225 0.6 2.5 998.1 0.0000 0.0000
17:44 -0.1 -3.4 76 270 0.6 1.1 998 0.0000 0.0000
17:54 -0.1 -3.4 76 0.6 2.2 998 0.0000 0.0000
18:03 -0.1 -3.4 76 285 0.6 1.7 997.9 0.0000 0.0000
18:14 -0.1 -3.4 76 285 0.6 1.9 997.9 0.0000 0.0000
18:24 -0.1 -3.4 76 255 0.6 1.1 997.8 0.0000 0.0000
18:34 -0.1 -3.4 76 0 0.6 2.2 997.7 0.0000 0.0000
18:44 0 -3.3 76 240 0.6 1.7 997.6 0.0000 0.0000
18:54 0 -3.3 76 240 0.6 1.9 997.6 0.0000 0.0000

DAY STATISTIC

2020-12-03
TEMPERATURE
AVERAGE
-1.1
HIGH
0.8
16:33
LOW
-3.3
02:01
PRESSURE
AVERAGE
1003.7
HIGH
1010.8
00:03
LOW
997.6
18:44
DEWPOINT
AVERAGE
-4.3
HIGH
-2.4
16:33
LOW
-6.5
02:01
HUMIDITY
AVERAGE
77
HIGH
77
02:52
LOW
76
00:03
WIND SPEED
AVERAGE
0.6
HIGH
0.8
07:13
WIND GUST
AVERAGE
1.8
HIGH
3.1
07:34
WIND DIRECTION
PREVAILING
SW
49.1%
N
1.8
NE
0.0
E
7.3
SE
4.5
S
9.1
SW
49.1
W
21.8
NW
3.6
PRECIPITATION
RAIN HOUR
0.0
RAIN DAY
0.0
TEMPERATURE (°C)
LOW
-3.3
HIGH
0.8
AVERAGE
-1.1
PRESSURE (hpa)
LOW
997.6
HIGH
1010.8
AVERAGE
1003.7
DEVICE